LFMP/PGF METAR and TAF weather

Enter ICAO airport designator
Station Type Date Time Source
LFMP METAR 2020/01/17 22:30 UTC NOAA

LFMP 172230Z AUTO 29018KT CAVOK 10/02 Q1029


Station Type Date Time Source
LFMP Decoded METAR 2020/01/17 22:30 UTC NOAA

Perpignan, France (LFMP) 42-44N 002-52E 48M
Jan 17, 2020 - 05:30 PM EST / 2020.01.17 2230 UTC
Wind: from the WNW (290 degrees) at 21 MPH (18 KT):0
Visibility: greater than 7 mile(s):0
Temperature: 50 F (10 C)
Dew Point: 35 F (2 C)
Relative Humidity: 57%
Pressure (altimeter): 30.39 in. Hg (1029 hPa)
ob: LFMP 172230Z AUTO 29018KT CAVOK 10/02 Q1029
cycle: 22

Station Type Date Time Source
LFMP TAF 2020/01/17 21:36 UTC NOAA

TAF
AMD TAF
AMD LFMP 172133Z 1721/1815 CNL

Example: see airport list